West Point, GA (31833)

4:19 AM EDT on October 01, 2014 (GMT -0400)
Lagrange-Callaway | Change Station
CLOSE
Current Station
Airport
Location: La Grange,
Elevation: 692 ft
Nearby Weather Stations

Elev 692 ft 33.01 °N, 85.07 °W | Updated 24 minutes ago

Fog
Fog
63 °F
Feels Like 63 °F
N
0
Wind Variable Wind from North

Today
High -- | Low -- °F
--% Chance of Precip.
Yesterday
High -- | Low -- °F
Precip. -- in
7:34 AM 7:25 PM
Waxing Crescent, 45% visible
Pressure 29.94 in
Visibility 0.5 miles
Clouds Overcast 100 ft
Dew Point 62 °F
Humidity 99%
Rainfall 0.00 in
Snow Depth Not available.
UV 0 out of 12
Pollen 6.10 out of 12
Ozone Good
PM2.5 Moderate
Flu Activity Not available.
METAR KLGC 010755Z AUTO 00000KT 1/2SM FG OVC001 17/17 A2994 RMK AO2 T01700169

More Conditions Fewer Conditions

Pressure 29.94 in
Visibility 0.5 miles
Clouds Overcast 100 ft
Dew Point 62 °F
Humidity 99%
Rainfall 0.00 in
Snow Depth Not available.
UV 0 out of 12
Pollen 6.10 out of 12
Ozone Good
PM2.5 Moderate
Flu Activity Not available.
METAR KLGC 010755Z AUTO 00000KT 1/2SM FG OVC001 17/17 A2994 RMK AO2 T01700169

More Conditions Fewer Conditions

10-Day Weather Forecast

Almanac

Astronomy

Oct. 01, 2014 Rise Set
Actual Time 7:34 AM EDT 7:25 PM EDT
Civil Twilight 7:10 AM EDT 7:49 PM EDT
Nautical Twilight 6:41 AM EDT 8:18 PM EDT
Astronomical Twilight 6:12 AM EDT 8:47 PM EDT
Moon 2:21 PM EDT 12:09 AM EDT
Length of Visible Light 12h 39m
Length of Day
11h 50m
Tomorrow will be 2m 0s shorter.
Waxing Crescent, 45% of the Moon is Illuminated
Today
Waxing Crescent
Oct 1
First Quarter
Oct 8
Full
Oct 15
Last Quarter
Oct 23
New

Today's Extremes

State Highs State Lows

Community

WunderPhotos

Upload Photos

1,757,902 photos uploaded!

Nearby

Air Quality

  Air Quality AQ Index Pollutant
Yesterday Good
OZONE
Yesterday Good
PM10
Current Moderate
PM2.5
Current Good
OZONE
Wednesday Good
PM2.5
Wednesday Good
OZONE

Snow Depth

Station Depth Elevation
No new snow has been reported.

Earthquake Activity

City Distance Mag. Time & Date
No recent earthquake activity has been reported nearby.
Minimum magnitude displayed is 2.5.

Coastal Water Temperatures

Place Temperature
No Stations Reporting

Nearby Weather Stations